Time;durP1;ratioP1;P1;durP2;ratioP2;P2;SDS_P1;SDS_P2;PMS_P1;PMS_P2;Temp;Humidity;BMP_temperature;BMP_pressure;BME280_temperature;BME280_humidity;BME280_pressure;Samples;Min_cycle;Max_cycle;Signal;HPM_P1;HPM_P2
2021/01/04 07:43:52;;;;;;;35.85;19.05;;;3.10;98.20;;;;;;6310778;22;19964;-77
2021/01/04 09:36:07;;;;;;;31.55;18.80;;;3.60;97.70;;;;;;6274054;22;20023;31
2021/01/04 09:38:35;;;;;;;30.45;17.60;;;3.70;97.50;;;;;;6258372;23;20020;-81
2021/01/04 09:41:07;;;;;;;31.95;17.77;;;3.60;97.10;;;;;;6231896;23;20433;-82
2021/01/04 09:43:38;;;;;;;30.73;18.10;;;3.50;97.50;;;;;;6231137;23;20020;-82
2021/01/04 09:46:18;;;;;;;30.90;17.95;;;3.70;97.50;;;;;;6232011;23;20042;-81
2021/01/04 09:48:54;;;;;;;32.38;17.67;;;3.60;97.30;;;;;;6251150;23;20032;-80
2021/01/04 09:51:32;;;;;;;31.42;18.02;;;3.80;97.20;;;;;;6253488;23;20020;-81
2021/01/04 09:54:03;;;;;;;30.80;17.67;;;3.70;97.20;;;;;;6251216;23;20074;-81
2021/01/04 09:56:34;;;;;;;30.77;17.75;;;3.70;97.10;;;;;;6252642;23;20044;-81
2021/01/04 09:59:07;;;;;;;31.08;18.63;;;3.60;97.10;;;;;;6258946;23;20027;-80
2021/01/04 10:01:46;;;;;;;30.25;17.42;;;3.70;97.20;;;;;;6253898;23;20135;-80
2021/01/04 10:04:14;;;;;;;31.67;17.60;;;3.70;97.10;;;;;;6254079;23;20040;-80
2021/01/04 10:06:41;;;;;;;32.50;18.50;;;3.70;97.00;;;;;;6255268;23;20020;-81
2021/01/04 10:09:18;;;;;;;32.15;17.58;;;3.80;96.90;;;;;;6247093;23;20024;-81
2021/01/04 10:11:50;;;;;;;26.67;15.90;;;3.90;96.90;;;;;;6253870;23;20071;-80
2021/01/04 10:14:20;;;;;;;26.30;16.55;;;3.70;97.00;;;;;;6252216;23;20028;-80
2021/01/04 10:16:55;;;;;;;24.63;14.57;;;3.80;96.60;;;;;;6257037;23;20024;-81
2021/01/04 10:19:30;;;;;;;22.73;14.27;;;3.80;96.20;;;;;;6262462;23;20020;-82
2021/01/04 10:22:05;;;;;;;;;;;3.80;96.10;;;;;;6265413;22;20028;-82
2021/01/04 10:24:39;;;;;;;21.45;12.77;;;3.90;96.00;;;;;;6266316;22;20226;-82
2021/01/04 10:27:08;;;;;;;22.93;12.83;;;4.00;95.60;;;;;;6291904;22;20019;-81
2021/01/04 10:29:41;;;;;;;24.85;14.68;;;3.90;95.10;;;;;;6302471;22;20306;-81
2021/01/04 10:32:13;;;;;;;24.05;13.05;;;3.90;94.90;;;;;;6296938;22;20024;-81
2021/01/04 10:34:47;;;;;;;21.13;12.38;;;4.10;94.40;;;;;;6293996;22;20047;-82
2021/01/04 10:37:47;;;;;;;22.95;12.57;;;4.00;94.10;;;;;;6293761;22;20811;-84
2021/01/04 10:40:18;;;;;;;21.25;11.88;;;4.00;94.10;;;;;;6264432;22;20019;-82
2021/01/04 10:42:49;;;;;;;21.58;12.48;;;4.00;94.10;;;;;;6294691;22;20023;-82
2021/01/04 10:45:21;;;;;;;20.38;12.65;;;3.90;94.10;;;;;;6295037;22;20030;-81
2021/01/04 10:47:54;;;;;;;21.90;12.13;;;4.00;93.80;;;;;;6296405;22;20027;-82
2021/01/04 10:50:32;;;;;;;20.50;12.00;;;4.10;93.50;;;;;;6296719;22;20019;-81
2021/01/04 10:53:03;;;;;;;19.17;11.10;;;4.10;93.40;;;;;;6242844;22;20019;-81
2021/01/04 10:55:33;;;;;;;19.35;10.93;;;4.10;93.30;;;;;;6298293;22;20023;-81
2021/01/04 10:58:16;;;;;;;18.70;11.18;;;4.10;92.40;;;;;;6294400;22;20019;-81
2021/01/04 11:00:53;;;;;;;18.98;11.07;;;4.10;92.20;;;;;;6294996;22;20023;-80
2021/01/04 11:03:19;;;;;;;19.15;11.48;;;4.00;91.20;;;;;;6291365;22;20032;-81
2021/01/04 11:05:49;;;;;;;18.90;11.10;;;4.20;91.10;;;;;;6284734;22;20020;-79
2021/01/04 11:08:29;;;;;;;20.05;11.65;;;4.00;91.40;;;;;;6286428;22;20071;-80
2021/01/04 11:11:05;;;;;;;21.15;11.60;;;4.00;91.20;;;;;;6285427;22;20053;-80
2021/01/04 11:33:15;;;;;;;19.83;11.70;;;4.00;90.30;;;;;;6322524;22;20025;-84
2021/01/04 11:35:51;;;;;;;19.67;11.32;;;4.00;90.40;;;;;;6335327;22;20050;-85
2021/01/04 12:49:38;;;;;;;33.10;16.10;;;3.60;91.50;;;;;;6264567;22;20270;-81
2021/01/04 12:52:09;;;;;;;30.73;16.45;;;3.70;91.40;;;;;;6301936;22;20027;-81
2021/01/04 13:05:32;;;;;;;;;;;3.60;91.80;;;;;;6260815;22;20637;-78
2021/01/04 13:07:59;;;;;;;31.65;16.00;;;3.60;91.20;;;;;;6291395;22;19899;-81
2021/01/04 13:13:08;;;;;;;28.52;15.48;;;3.60;91.30;;;;;;6331942;22;20003;-81
2021/01/04 13:15:41;;;;;;;28.97;16.07;;;3.60;91.40;;;;;;6336167;22;20076;-81
2021/01/04 13:18:24;;;;;;;30.13;16.45;;;3.60;91.40;;;;;;6334529;22;20296;-82
2021/01/04 13:21:07;;;;;;;29.08;15.38;;;3.60;91.80;;;;;;6335447;22;20019;-83
2021/01/04 13:23:56;;;;;;;29.42;15.55;;;3.60;92.10;;;;;;6335040;22;20003;-81
2021/01/04 13:26:29;;;;;;;27.02;15.07;;;3.70;92.00;;;;;;6302558;22;20070;-81
2021/01/04 13:28:58;;;;;;;28.20;15.27;;;3.70;92.10;;;;;;6307188;22;20026;-81
2021/01/04 13:31:32;;;;;;;27.70;14.98;;;3.80;92.00;;;;;;6330938;22;20000;-81
2021/01/04 13:34:04;;;;;;;28.55;15.27;;;3.70;92.00;;;;;;6334304;22;20019;-82
2021/01/04 13:36:36;;;;;;;31.00;15.15;;;3.90;92.30;;;;;;6331070;22;20023;-83
2021/01/04 13:39:12;;;;;;;29.20;15.77;;;3.80;92.30;;;;;;6302200;22;20020;-81
2021/01/04 13:41:44;;;;;;;26.05;14.52;;;3.80;92.00;;;;;;6329549;22;20027;-83
2021/01/04 13:44:14;;;;;;;28.92;15.25;;;3.70;92.30;;;;;;6324990;22;20027;-82
2021/01/04 13:46:41;;;;;;;25.55;14.25;;;3.70;92.30;;;;;;6273254;22;20023;-81
2021/01/04 13:57:27;;;;;;;29.90;15.55;;;3.80;91.70;;;;;;6317694;22;20027;-80
2021/01/04 13:59:59;;;;;;;32.45;17.38;;;3.80;91.90;;;;;;6324524;22;20020;-80
2021/01/04 14:02:28;;;;;;;29.77;15.43;;;3.70;92.00;;;;;;6326153;22;20021;-81
2021/01/04 14:04:56;;;;;;;25.85;14.55;;;3.60;92.20;;;;;;6324472;22;20015;-79
2021/01/04 14:07:38;;;;;;;25.73;14.02;;;3.70;91.80;;;;;;6317282;22;20031;-82
2021/01/04 14:10:41;;;;;;;26.70;14.80;;;3.70;91.50;;;;;;6330983;22;20013;-80
2021/01/04 17:45:03;;;;;;;35.28;16.88;;;3.00;92.20;;;;;;6299309;22;20354;31
2021/01/04 19:04:41;;;;;;;39.97;20.23;;;2.70;93.20;;;;;;6299189;22;20277;-82
2021/01/04 19:17:56;;;;;;;38.70;18.73;;;2.90;97.20;;;;;;6311370;22;20337;-81
2021/01/04 19:20:28;;;;;;;33.42;17.95;;;2.90;93.10;;;;;;6359427;22;20019;-81
2021/01/04 19:28:06;;;;;;;32.97;17.17;;;2.90;92.50;;;;;;6327329;22;20037;-82
2021/01/04 19:33:09;;;;;;;32.47;17.15;;;2.80;92.50;;;;;;6347610;22;20007;-81
2021/01/04 21:11:48;;;;;;;23.60;12.00;;;2.50;92.80;;;;;;6300674;22;20325;31
